Time;durP1;ratioP1;P1;durP2;ratioP2;P2;SDS_P1;SDS_P2;PMS_P1;PMS_P2;Temp;Humidity;BMP_temperature;BMP_pressure;BME280_temperature;BME280_humidity;BME280_pressure;Samples;Min_cycle;Max_cycle;Signal;HPM_P1;HPM_P2
2022/01/22 00:01:29;;;;;;;15.27;5.23;;;;;;;;;;5008042;28;20095;-67
2022/01/22 00:03:55;;;;;;;13.70;4.00;;;;;;;;;;5009191;28;20129;-67
2022/01/22 00:06:21;;;;;;;17.60;4.47;;;5.50;99.90;;;;;;5009701;28;20026;-66
2022/01/22 00:08:46;;;;;;;12.60;4.40;;;5.50;99.90;;;;;;5012203;28;20041;-67
2022/01/22 00:11:12;;;;;;;11.33;4.30;;;5.60;99.90;;;;;;5009323;28;20046;-67
2022/01/22 00:16:23;;;;;;;15.70;4.00;;;5.40;99.90;;;;;;5021044;28;20044;-67
2022/01/22 00:18:49;;;;;;;11.53;4.70;;;;;;;;;;5014285;28;20022;-67
2022/01/22 00:21:15;;;;;;;14.73;5.07;;;;;;;;;;5028353;28;20037;-67
2022/01/22 00:23:48;;;;;;;10.57;4.70;;;;;;;;;;5027068;28;20025;-67
2022/01/22 00:26:13;;;;;;;17.33;5.10;;;5.70;99.90;;;;;;5009202;28;20026;-67
2022/01/22 00:28:39;;;;;;;18.57;6.10;;;5.60;99.90;;;;;;5008497;28;20025;-67
2022/01/22 00:31:04;;;;;;;16.10;6.33;;;5.40;99.90;;;;;;5008084;28;20045;-67
2022/01/22 00:33:30;;;;;;;16.37;6.20;;;;;;;;;;5008341;28;20064;-67
2022/01/22 00:35:56;;;;;;;17.03;5.93;;;5.40;99.90;;;;;;5007685;28;20771;-67
2022/01/22 00:38:21;;;;;;;14.40;5.93;;;;;;;;;;5014902;28;20030;-67
2022/01/22 00:40:51;;;;;;;16.53;6.03;;;;;;;;;;5008245;28;20037;-66
2022/01/22 00:43:17;;;;;;;12.13;6.53;;;5.40;99.90;;;;;;5009022;28;20494;-67
2022/01/22 00:45:43;;;;;;;13.77;6.40;;;5.40;99.90;;;;;;5007457;28;20026;-67
2022/01/22 00:48:08;;;;;;;12.20;6.07;;;5.50;99.90;;;;;;5008486;28;20037;-67
2022/01/22 00:50:34;;;;;;;14.13;6.30;;;5.40;99.90;;;;;;5008081;28;20037;-67
2022/01/22 00:52:59;;;;;;;16.03;5.70;;;5.40;99.90;;;;;;4994394;28;20022;-67
2022/01/22 00:55:25;;;;;;;17.47;6.80;;;5.40;99.90;;;;;;5026197;28;20176;-67
2022/01/22 00:57:50;;;;;;;16.57;6.27;;;5.60;99.90;;;;;;5027174;28;20025;-67
2022/01/22 01:00:17;;;;;;;16.60;7.57;;;6.40;99.90;;;;;;5026806;28;20022;-67
2022/01/22 01:02:43;;;;;;;12.90;6.97;;;5.40;99.90;;;;;;5027006;28;20405;-67
2022/01/22 01:05:10;;;;;;;15.07;7.60;;;5.40;99.90;;;;;;5027414;28;20037;-67
2022/01/22 01:07:36;;;;;;;18.13;6.03;;;5.40;99.90;;;;;;5024184;28;20396;-67
2022/01/22 01:10:02;;;;;;;10.37;5.90;;;;;;;;;;5008431;28;20070;-67
2022/01/22 01:12:28;;;;;;;12.97;6.67;;;;;;;;;;5008340;28;20395;-67
2022/01/22 01:15:14;;;;;;;10.77;7.03;;;5.10;99.90;;;;;;5008046;28;20061;-67
2022/01/22 01:34:00;;;;;;;12.55;7.93;;;5.40;99.90;;;;;;5027593;28;20087;-67
2022/01/22 01:36:25;;;;;;;25.47;9.10;;;5.50;99.90;;;;;;5027133;28;20029;-67
2022/01/22 01:38:55;;;;;;;29.73;10.50;;;5.40;99.90;;;;;;5027255;28;20359;-67
2022/01/22 01:41:31;;;;;;;22.00;9.67;;;5.30;99.90;;;;;;5027591;28;20018;-67
2022/01/22 01:43:57;;;;;;;16.37;9.20;;;5.50;99.90;;;;;;5026330;28;20024;-67
2022/01/22 01:46:25;;;;;;;18.40;10.57;;;;;;;;;;5009784;28;20030;-67
2022/01/22 01:48:51;;;;;;;17.33;9.03;;;;;;;;;;5011209;28;20415;-67
2022/01/22 01:51:17;;;;;;;16.27;9.83;;;5.40;99.90;;;;;;5012367;28;20076;-67
2022/01/22 01:53:55;;;;;;;21.63;9.93;;;;;;;;;;4993786;28;20109;-67
2022/01/22 01:59:16;;;;;;;26.42;11.55;;;5.50;99.90;;;;;;5016473;28;20083;-67
2022/01/22 02:01:42;;;;;;;21.17;10.10;;;5.60;99.90;;;;;;5011416;28;20952;-67
2022/01/22 02:04:10;;;;;;;25.80;13.27;;;5.50;99.90;;;;;;5011977;28;20038;-67
2022/01/22 02:06:36;;;;;;;22.87;11.83;;;5.60;99.90;;;;;;5011319;28;20036;-67
2022/01/22 02:09:07;;;;;;;21.60;11.23;;;5.60;99.90;;;;;;5011863;28;20022;-67
2022/01/22 02:11:33;;;;;;;22.27;11.87;;;5.30;99.90;;;;;;5010621;28;20541;-67
2022/01/22 02:24:46;;;;;;;26.10;11.37;;;;;;;;;;5029839;28;20103;-67
2022/01/22 02:27:12;;;;;;;23.27;11.90;;;5.40;99.90;;;;;;5029760;28;20037;-67
2022/01/22 02:29:38;;;;;;;28.17;12.70;;;5.60;99.90;;;;;;5029898;28;20029;-67
2022/01/22 02:35:00;;;;;;;20.17;12.10;;;5.50;99.90;;;;;;5009745;28;20394;-67
2022/01/22 02:37:33;;;;;;;23.60;12.20;;;;;;;;;;5027903;28;20041;-67
2022/01/22 02:42:31;;;;;;;20.73;10.80;;;;;;;;;;5008511;28;20038;-67
2022/01/22 02:44:57;;;;;;;16.67;10.77;;;;;;;;;;5008898;28;20387;-67
2022/01/22 02:47:23;;;;;;;25.40;11.93;;;;;;;;;;5008667;28;20018;-67
2022/01/22 02:49:49;;;;;;;21.63;11.77;;;5.60;99.90;;;;;;5016165;28;20029;-67
2022/01/22 02:52:17;;;;;;;27.33;11.30;;;5.40;99.90;;;;;;5010736;28;20029;-67
2022/01/22 02:54:43;;;;;;;22.03;12.33;;;;;;;;;;5009105;28;20498;-67
2022/01/22 02:57:10;;;;;;;28.53;12.97;;;5.60;99.90;;;;;;5010570;28;20133;-67
2022/01/22 02:59:36;;;;;;;30.17;14.13;;;;;;;;;;5028162;28;20112;-67
2022/01/22 03:02:04;;;;;;;19.03;11.67;;;5.50;99.90;;;;;;5029665;28;20170;-67
2022/01/22 03:04:30;;;;;;;20.20;11.60;;;5.50;99.90;;;;;;5028816;28;20035;-67
2022/01/22 03:06:56;;;;;;;22.37;11.23;;;5.50;99.90;;;;;;5010729;28;20022;-67
2022/01/22 03:09:28;;;;;;;22.30;11.70;;;;;;;;;;5010115;28;20022;-67
2022/01/22 03:22:31;;;;;;;23.67;12.07;;;5.70;99.90;;;;;;5029811;28;20104;-67
2022/01/22 03:27:41;;;;;;;;;;;5.70;99.90;;;;;;5014107;28;20855;-67
2022/01/22 03:30:07;;;;;;;21.90;10.93;;;5.70;99.90;;;;;;5010214;28;19941;-67
2022/01/22 03:32:41;;;;;;;18.03;11.13;;;5.80;99.90;;;;;;5009715;28;20419;-67
2022/01/22 03:37:34;;;;;;;27.57;12.80;;;5.70;99.90;;;;;;5009645;28;20030;-67
2022/01/22 03:40:00;;;;;;;34.17;12.63;;;5.70;99.90;;;;;;5009139;28;20140;-67
2022/01/22 03:42:26;;;;;;;26.53;12.63;;;5.90;99.90;;;;;;5014913;28;20108;-67
2022/01/22 03:44:52;;;;;;;21.67;11.23;;;;;;;;;;5009591;28;20033;-67
2022/01/22 03:47:17;;;;;;;21.97;10.57;;;5.80;99.90;;;;;;5009880;28;20026;-67
2022/01/22 03:49:44;;;;;;;20.47;11.10;;;;;;;;;;5009186;28;20034;-67
2022/01/22 03:52:09;;;;;;;18.37;10.50;;;5.80;99.90;;;;;;5009900;28;20442;-67
2022/01/22 03:54:35;;;;;;;21.63;11.27;;;5.70;99.90;;;;;;5010460;28;20026;-67
2022/01/22 03:57:01;;;;;;;20.50;10.83;;;5.80;99.90;;;;;;5009346;28;20500;-67
2022/01/22 03:59:29;;;;;;;21.77;10.47;;;5.90;99.90;;;;;;5009026;28;20025;-67
2022/01/22 04:04:31;;;;;;;21.07;11.87;;;5.90;99.90;;;;;;5029021;28;20120;-67
2022/01/22 04:09:44;;;;;;;18.63;9.35;;;;;;;;;;5011043;28;20037;-67
2022/01/22 04:12:21;;;;;;;17.90;9.17;;;5.70;99.90;;;;;;5012258;28;20038;-67
2022/01/22 04:14:52;;;;;;;22.60;10.97;;;5.80;99.90;;;;;;5008751;28;20850;-67
2022/01/22 04:25:31;;;;;;;;;;;5.80;99.90;;;;;;5026620;28;20115;-67
2022/01/22 04:27:57;;;;;;;20.13;10.03;;;;;;;;;;5027621;28;19944;-67
2022/01/22 04:30:25;;;;;;;20.63;9.33;;;5.80;99.90;;;;;;5027719;28;20079;-67
2022/01/22 04:32:51;;;;;;;23.83;10.43;;;;;;;;;;5027630;28;20013;-67
2022/01/22 04:35:18;;;;;;;22.57;10.07;;;5.70;99.90;;;;;;5028165;28;20466;-67
2022/01/22 04:37:45;;;;;;;18.87;9.73;;;5.80;99.90;;;;;;5026429;28;20386;-67
2022/01/22 04:40:11;;;;;;;23.50;9.80;;;5.90;99.90;;;;;;5027730;28;20022;-67
2022/01/22 04:42:39;;;;;;;15.23;8.40;;;5.90;99.90;;;;;;5027245;28;20057;-67
2022/01/22 04:45:18;;;;;;;18.43;8.70;;;5.90;99.90;;;;;;5023679;28;20018;-67
2022/01/22 04:48:07;;;;;;;17.60;8.53;;;;;;;;;;5008054;28;20103;-67
2022/01/22 04:55:44;;;;;;;16.40;9.17;;;5.40;99.90;;;;;;5008311;28;20447;-67
2022/01/22 04:58:10;;;;;;;25.03;9.40;;;5.90;99.90;;;;;;5008520;28;20044;-67
2022/01/22 05:00:38;;;;;;;24.40;8.27;;;5.80;99.90;;;;;;5013378;28;20392;-67
2022/01/22 05:03:04;;;;;;;15.13;7.67;;;5.90;99.90;;;;;;5008660;28;20495;-67
2022/01/22 05:05:31;;;;;;;20.03;8.47;;;5.90;99.90;;;;;;5007306;28;20341;-67
2022/01/22 05:07:57;;;;;;;20.73;8.20;;;;;;;;;;5008370;28;20018;-67
2022/01/22 05:10:23;;;;;;;30.67;8.23;;;;;;;;;;5008475;28;20044;-67
2022/01/22 05:12:49;;;;;;;19.27;6.70;;;5.90;99.90;;;;;;5008062;28;20054;-67
2022/01/22 05:15:16;;;;;;;11.97;6.70;;;;;;;;;;5014656;28;20039;-67
2022/01/22 05:17:44;;;;;;;13.47;6.83;;;;;;;;;;4990105;28;20088;-67
2022/01/22 05:20:25;;;;;;;21.90;8.07;;;6.00;99.90;;;;;;5007566;28;20117;-67
2022/01/22 05:23:07;;;;;;;13.43;6.37;;;6.50;99.90;;;;;;5012389;28;20037;-67
2022/01/22 05:25:45;;;;;;;14.33;5.97;;;;;;;;;;5031101;28;20036;-67
2022/01/22 05:28:47;;;;;;;12.47;5.93;;;6.00;99.90;;;;;;5030433;28;20167;-67
2022/01/22 05:36:54;;;;;;;13.17;5.97;;;6.00;99.90;;;;;;5012177;28;20022;-67
2022/01/22 05:38:56;;;;;;;12.63;6.20;;;5.90;99.90;;;;;;5023198;28;20178;-67
2022/01/22 05:41:22;;;;;;;18.40;7.07;;;;;;;;;;5012190;28;20146;-67
2022/01/22 05:43:49;;;;;;;19.57;7.30;;;;;;;;;;5011886;28;20536;-67
2022/01/22 05:46:14;;;;;;;15.30;6.67;;;5.90;99.90;;;;;;5012375;28;20156;-67
2022/01/22 05:48:39;;;;;;;17.67;7.50;;;6.00;99.90;;;;;;5010869;28;20109;-67
2022/01/22 05:51:06;;;;;;;21.23;8.10;;;;;;;;;;5012077;28;20091;-67
2022/01/22 05:54:00;;;;;;;15.33;7.67;;;;;;;;;;5016820;28;20458;-67
2022/01/22 06:01:48;;;;;;;15.57;8.20;;;;;;;;;;5025369;28;20040;-67
2022/01/22 06:04:14;;;;;;;21.43;9.37;;;;;;;;;;5030256;28;20407;-67
2022/01/22 06:06:39;;;;;;;15.97;8.00;;;6.10;99.90;;;;;;5030052;28;20048;-67
2022/01/22 06:09:09;;;;;;;23.57;9.07;;;;;;;;;;5023875;28;20029;-67
2022/01/22 06:11:50;;;;;;;16.53;8.53;;;6.10;99.90;;;;;;5011207;28;20329;-67
2022/01/22 06:14:16;;;;;;;27.93;9.13;;;;;;;;;;5011732;28;20491;-67
2022/01/22 06:16:42;;;;;;;23.03;10.07;;;5.90;99.90;;;;;;5010801;28;20033;-67
2022/01/22 06:19:07;;;;;;;28.03;10.30;;;5.90;99.90;;;;;;5010844;28;20036;-67
2022/01/22 06:21:33;;;;;;;25.30;10.70;;;6.40;99.90;;;;;;5011031;28;20382;-67
2022/01/22 06:23:58;;;;;;;22.77;10.07;;;6.10;99.90;;;;;;5015343;28;20105;-67
2022/01/22 06:26:24;;;;;;;29.07;10.63;;;6.10;99.90;;;;;;5017194;28;20056;-67
2022/01/22 06:28:49;;;;;;;16.20;10.07;;;6.00;99.90;;;;;;5010890;28;20469;-67
2022/01/22 06:31:15;;;;;;;26.27;9.77;;;;;;;;;;5011338;28;20390;-67
2022/01/22 06:33:41;;;;;;;23.47;10.43;;;;;;;;;;5010039;28;20105;-67
2022/01/22 06:36:07;;;;;;;21.00;10.10;;;;;;;;;;5011179;28;20042;-67
2022/01/22 06:38:33;;;;;;;24.93;10.83;;;5.90;99.90;;;;;;5012923;28;20030;-67
2022/01/22 06:43:43;;;;;;;28.77;12.50;;;5.90;99.90;;;;;;5024530;28;20068;-67
2022/01/22 06:46:09;;;;;;;27.70;12.27;;;6.00;99.90;;;;;;5012084;28;20064;-67
2022/01/22 06:48:35;;;;;;;26.30;11.93;;;;;;;;;;5028689;28;20056;-67
2022/01/22 06:51:01;;;;;;;26.43;10.73;;;5.90;99.90;;;;;;5029607;28;20830;-67
2022/01/22 06:53:27;;;;;;;28.70;12.27;;;;;;;;;;5029580;28;20030;-67
2022/01/22 06:56:02;;;;;;;33.37;12.77;;;6.10;99.90;;;;;;5022627;28;20030;-67
2022/01/22 06:58:28;;;;;;;23.83;12.07;;;;;;;;;;4992865;28;20113;-67
2022/01/22 07:00:53;;;;;;;25.07;12.70;;;5.90;99.90;;;;;;5010608;28;20034;-67
2022/01/22 07:03:19;;;;;;;24.60;11.47;;;6.00;99.90;;;;;;5010413;28;20419;-67
2022/01/22 07:05:45;;;;;;;23.20;11.73;;;6.00;99.90;;;;;;5009986;28;20041;-67
2022/01/22 07:08:10;;;;;;;19.07;10.70;;;6.10;99.90;;;;;;5015719;28;20117;-67
2022/01/22 07:10:36;;;;;;;24.90;11.37;;;;;;;;;;5009873;28;20033;-67
2022/01/22 07:13:02;;;;;;;19.90;9.50;;;5.80;99.90;;;;;;5010087;28;20463;-67
2022/01/22 07:15:28;;;;;;;20.57;10.07;;;;;;;;;;5009868;28;20038;-67
2022/01/22 07:17:55;;;;;;;18.87;9.70;;;6.20;99.90;;;;;;5009497;28;20111;-67
2022/01/22 07:20:28;;;;;;;17.83;9.77;;;6.30;99.90;;;;;;5010710;28;20137;-67
2022/01/22 07:23:02;;;;;;;14.90;8.45;;;6.40;99.90;;;;;;5019499;28;20037;-67
2022/01/22 07:25:29;;;;;;;14.50;8.25;;;6.30;99.90;;;;;;5009693;28;20085;-67
2022/01/22 07:27:55;;;;;;;12.77;7.97;;;6.20;99.90;;;;;;5010247;28;20026;-67
2022/01/22 07:30:21;;;;;;;21.93;8.47;;;6.40;99.90;;;;;;5009605;28;20494;-67
2022/01/22 07:32:47;;;;;;;20.20;8.90;;;6.30;99.90;;;;;;5009803;28;20402;-67
2022/01/22 07:35:16;;;;;;;17.50;9.30;;;6.40;99.90;;;;;;5010337;28;20363;-67
2022/01/22 07:37:43;;;;;;;18.60;7.00;;;6.30;99.90;;;;;;5009229;28;20853;-67
2022/01/22 07:40:10;;;;;;;17.00;8.93;;;6.50;99.90;;;;;;5010169;28;20056;-67
2022/01/22 07:42:37;;;;;;;20.20;8.67;;;;;;;;;;5009441;28;20033;-67
2022/01/22 07:45:03;;;;;;;12.60;6.60;;;6.70;99.90;;;;;;5013114;28;20022;-67
2022/01/22 07:47:29;;;;;;;12.13;6.10;;;6.50;99.90;;;;;;5009137;28;20030;-67
2022/01/22 07:49:55;;;;;;;12.20;7.37;;;6.60;99.90;;;;;;5009562;28;20030;-67
2022/01/22 07:52:20;;;;;;;19.30;7.83;;;6.40;99.90;;;;;;5009981;28;20033;-67
2022/01/22 07:54:46;;;;;;;15.60;7.40;;;;;;;;;;5008584;28;20117;-66
2022/01/22 07:57:11;;;;;;;17.87;8.23;;;6.50;99.90;;;;;;4992099;28;20125;-67
2022/01/22 07:59:37;;;;;;;9.97;6.03;;;6.80;99.90;;;;;;5008401;28;20160;-67
2022/01/22 08:02:04;;;;;;;15.30;6.77;;;6.50;99.90;;;;;;5009383;28;20026;-67
2022/01/22 08:04:30;;;;;;;16.07;7.13;;;;;;;;;;5008877;28;20030;-67
2022/01/22 08:06:58;;;;;;;18.30;7.13;;;6.40;99.90;;;;;;5009315;28;20754;-67
2022/01/22 08:09:24;;;;;;;18.80;6.73;;;6.50;99.90;;;;;;5016053;28;20026;-67
2022/01/22 08:11:49;;;;;;;18.27;7.90;;;6.90;99.90;;;;;;5014139;28;20071;-67
2022/01/22 08:14:16;;;;;;;16.10;7.63;;;6.60;99.90;;;;;;5008806;28;20099;-67
2022/01/22 08:16:41;;;;;;;19.10;7.30;;;6.60;99.90;;;;;;5008637;28;20414;-67
2022/01/22 08:19:07;;;;;;;20.97;8.20;;;6.40;99.90;;;;;;4991316;28;20404;-67
2022/01/22 08:21:33;;;;;;;14.73;7.10;;;;;;;;;;5008445;28;20112;-67
2022/01/22 08:23:58;;;;;;;15.00;7.33;;;6.50;99.90;;;;;;5013751;28;20026;-67
2022/01/22 08:26:29;;;;;;;16.70;7.33;;;6.50;99.90;;;;;;5011503;28;20376;-67
2022/01/22 08:28:58;;;;;;;14.57;6.07;;;;;;;;;;5015995;28;20022;-67
2022/01/22 08:36:42;;;;;;;17.23;7.37;;;6.50;99.90;;;;;;5008867;28;20812;-68
2022/01/22 08:39:08;;;;;;;11.60;6.37;;;6.60;99.90;;;;;;5009305;28;20033;-67
2022/01/22 08:41:34;;;;;;;14.10;5.77;;;;;;;;;;5008749;28;20030;-67
2022/01/22 08:44:00;;;;;;;13.40;5.47;;;;;;;;;;5008213;28;20088;-67
2022/01/22 08:46:29;;;;;;;14.47;5.70;;;6.70;99.90;;;;;;5014410;28;20156;-67
2022/01/22 08:48:55;;;;;;;12.43;5.50;;;6.70;99.90;;;;;;5009004;28;20471;-68
2022/01/22 08:51:20;;;;;;;11.70;5.23;;;6.70;99.90;;;;;;5009201;28;20037;-67
2022/01/22 08:53:48;;;;;;;11.80;5.80;;;6.80;99.90;;;;;;5012469;28;20036;-68
2022/01/22 08:56:13;;;;;;;9.83;4.90;;;6.70;99.90;;;;;;5027306;28;20029;-67
2022/01/22 08:58:39;;;;;;;11.43;5.23;;;;;;;;;;5025330;28;20386;-67
2022/01/22 09:01:06;;;;;;;16.57;5.40;;;6.70;99.90;;;;;;5027225;28;20030;-68
2022/01/22 09:03:32;;;;;;;11.43;5.17;;;6.80;99.90;;;;;;5006509;28;20462;-68
2022/01/22 09:05:58;;;;;;;12.00;6.00;;;;;;;;;;5027406;28;20060;-68
2022/01/22 09:08:25;;;;;;;9.67;4.97;;;7.00;99.90;;;;;;5027677;28;20501;-68
2022/01/22 09:10:52;;;;;;;13.63;5.47;;;6.80;99.90;;;;;;5027362;28;20543;-67
2022/01/22 09:13:19;;;;;;;15.53;5.60;;;7.00;99.90;;;;;;5027060;28;20087;-67
2022/01/22 09:15:44;;;;;;;20.03;5.27;;;6.80;99.90;;;;;;5027140;28;20080;-67
2022/01/22 09:18:10;;;;;;;8.77;4.73;;;6.90;99.90;;;;;;5027396;28;20478;-67
2022/01/22 09:23:06;;;;;;;14.47;5.20;;;7.00;99.90;;;;;;5027710;28;20022;-68
2022/01/22 09:25:33;;;;;;;17.73;5.57;;;7.00;99.90;;;;;;5027176;28;20029;-68
2022/01/22 09:27:59;;;;;;;15.43;5.13;;;;;;;;;;5026708;28;20366;-67
2022/01/22 09:30:25;;;;;;;13.33;3.90;;;7.10;99.90;;;;;;5024361;28;20030;-67
2022/01/22 09:32:50;;;;;;;10.57;5.20;;;7.10;99.90;;;;;;5008437;28;20038;-67
2022/01/22 09:35:16;;;;;;;15.23;5.17;;;7.00;99.90;;;;;;5008915;28;20026;-67
2022/01/22 09:37:43;;;;;;;16.13;4.43;;;7.00;99.90;;;;;;5008241;28;20168;-67
2022/01/22 09:40:09;;;;;;;12.70;5.60;;;6.90;99.90;;;;;;5008584;28;20369;-67
2022/01/22 09:42:34;;;;;;;7.13;4.63;;;7.00;99.90;;;;;;5024335;28;20029;-67
2022/01/22 09:45:02;;;;;;;9.43;4.33;;;7.00;99.90;;;;;;5027537;28;20791;-67
2022/01/22 09:47:28;;;;;;;6.93;4.63;;;7.00;99.90;;;;;;5027034;28;20025;-67
2022/01/22 09:49:54;;;;;;;12.03;4.50;;;7.00;99.90;;;;;;5027157;28;20037;-67
2022/01/22 09:52:20;;;;;;;15.83;4.43;;;7.00;99.90;;;;;;5027517;28;20041;-67
2022/01/22 09:54:46;;;;;;;16.17;6.30;;;;;;;;;;5017728;28;20621;-67
2022/01/22 09:57:13;;;;;;;12.23;5.07;;;;;;;;;;5016562;28;20030;-67
2022/01/22 09:59:39;;;;;;;10.93;4.70;;;;;;;;;;5008039;28;20018;-67
2022/01/22 10:02:10;;;;;;;10.10;4.63;;;7.10;99.90;;;;;;5011782;28;20022;-67
2022/01/22 10:04:38;;;;;;;10.17;4.70;;;7.10;99.90;;;;;;5009058;28;20034;-67
2022/01/22 10:07:04;;;;;;;12.40;5.03;;;7.30;99.90;;;;;;5020389;28;20022;-67
2022/01/22 10:09:37;;;;;;;13.03;5.00;;;7.10;99.90;;;;;;5023745;28;20437;-68
2022/01/22 10:12:11;;;;;;;14.47;5.67;;;7.30;99.90;;;;;;5030413;28;20025;-67
2022/01/22 10:14:55;;;;;;;;;;;7.20;99.90;;;;;;5022169;28;20116;-66
2022/01/22 10:17:43;;;;;;;9.20;4.80;;;7.20;99.90;;;;;;5012073;28;19909;-68
2022/01/22 10:20:30;;;;;;;8.93;4.00;;;7.30;99.90;;;;;;5025248;28;20060;-68
2022/01/22 10:22:59;;;;;;;9.77;4.43;;;7.00;99.90;;;;;;5030818;28;20022;-68
2022/01/22 10:25:28;;;;;;;10.27;4.43;;;7.20;99.90;;;;;;5029425;28;20513;-68
2022/01/22 10:28:06;;;;;;;12.30;5.67;;;7.30;99.90;;;;;;5024347;28;20018;-68
2022/01/22 10:30:38;;;;;;;11.63;5.83;;;7.30;99.90;;;;;;5017947;28;20038;-68
2022/01/22 10:33:34;;;;;;;14.37;5.60;;;7.50;99.90;;;;;;5011664;28;20075;-68
2022/01/22 10:36:19;;;;;;;11.07;4.50;;;7.30;99.90;;;;;;5027090;28;20049;-68
2022/01/22 10:38:50;;;;;;;11.40;4.90;;;7.30;99.90;;;;;;5016596;28;20367;-68
2022/01/22 10:41:19;;;;;;;13.53;6.10;;;7.20;99.90;;;;;;4995121;28;20029;-68
2022/01/22 10:43:54;;;;;;;12.60;5.30;;;7.10;99.90;;;;;;5023567;28;20048;-68
2022/01/22 10:46:34;;;;;;;10.07;5.40;;;7.10;99.90;;;;;;5018114;28;20033;-68
2022/01/22 10:49:12;;;;;;;17.23;6.73;;;7.30;99.90;;;;;;5011244;28;20371;-68
2022/01/22 10:51:52;;;;;;;13.00;6.60;;;7.10;99.90;;;;;;5010738;28;20113;-68
2022/01/22 10:54:23;;;;;;;14.00;4.97;;;7.10;99.90;;;;;;5010798;28;20030;-68
2022/01/22 10:56:51;;;;;;;11.20;5.20;;;7.10;99.90;;;;;;5010605;28;20036;-68
2022/01/22 10:59:19;;;;;;;11.43;5.80;;;7.10;99.90;;;;;;5011379;28;20018;-68
2022/01/22 11:01:46;;;;;;;11.17;5.73;;;7.30;99.90;;;;;;5010394;28;20026;-67
2022/01/22 11:04:14;;;;;;;12.57;5.77;;;7.10;99.90;;;;;;5011177;28;20022;-67
2022/01/22 11:06:59;;;;;;;21.80;6.53;;;7.20;99.90;;;;;;5010435;28;20112;-68
2022/01/22 11:09:29;;;;;;;13.43;6.47;;;7.40;99.90;;;;;;5023853;28;20022;-68
2022/01/22 11:11:55;;;;;;;10.07;6.27;;;7.20;99.90;;;;;;5029707;28;20033;-67
2022/01/22 11:14:21;;;;;;;11.13;5.97;;;7.30;99.90;;;;;;5029831;28;20042;-67
2022/01/22 11:16:48;;;;;;;11.20;5.90;;;7.20;99.90;;;;;;5015379;28;20030;-68
2022/01/22 11:19:20;;;;;;;11.60;6.13;;;7.10;99.90;;;;;;5012481;28;20036;-68
2022/01/22 11:21:49;;;;;;;14.93;6.23;;;7.40;99.90;;;;;;5009375;28;20033;-68
2022/01/22 11:24:21;;;;;;;13.33;5.83;;;7.40;99.90;;;;;;4992252;28;20364;-68
2022/01/22 11:26:54;;;;;;;13.47;7.33;;;7.40;99.90;;;;;;5009665;28;20435;-68
2022/01/22 11:29:23;;;;;;;19.07;8.57;;;7.50;99.90;;;;;;5010771;28;20030;-68
2022/01/22 11:31:50;;;;;;;14.97;7.47;;;7.50;99.90;;;;;;5009939;28;20534;-68
2022/01/22 11:34:19;;;;;;;16.27;8.87;;;7.50;99.90;;;;;;5010498;28;20040;-67
2022/01/22 11:36:53;;;;;;;18.83;9.03;;;7.40;99.90;;;;;;5018055;28;20037;-67
2022/01/22 11:39:23;;;;;;;11.00;7.43;;;7.40;99.90;;;;;;5019062;28;20343;-67
2022/01/22 11:41:54;;;;;;;15.27;8.57;;;7.50;99.90;;;;;;5008511;28;20084;-67
2022/01/22 11:44:33;;;;;;;17.70;7.13;;;7.40;99.90;;;;;;5000258;28;20448;-67
2022/01/22 11:47:28;;;;;;;15.27;8.37;;;7.40;99.90;;;;;;5028601;28;20482;-67
2022/01/22 11:50:03;;;;;;;10.03;7.03;;;7.50;99.90;;;;;;5000000;28;20344;-68
2022/01/22 11:52:32;;;;;;;10.83;6.73;;;7.60;99.90;;;;;;5008786;28;20042;-67
2022/01/22 11:55:00;;;;;;;14.27;7.43;;;7.40;99.90;;;;;;5010378;28;20032;-67
2022/01/22 11:57:29;;;;;;;14.17;7.07;;;7.60;99.90;;;;;;5009479;28;20144;-67
2022/01/22 12:00:22;;;;;;;10.90;7.83;;;7.50;99.90;;;;;;5009659;28;20100;-68
2022/01/22 12:03:03;;;;;;;10.30;6.57;;;7.40;99.90;;;;;;5022196;28;20030;-68
2022/01/22 12:05:29;;;;;;;11.23;6.13;;;7.70;99.90;;;;;;5009033;28;20030;-68
2022/01/22 12:07:59;;;;;;;10.17;5.43;;;7.50;99.90;;;;;;5011376;28;20029;-68
2022/01/22 12:10:43;;;;;;;6.63;4.73;;;7.50;99.90;;;;;;5027580;28;20022;-68
2022/01/22 12:16:07;;;;;;;10.37;5.63;;;;;;;;;;5017665;28;20076;-68
2022/01/22 12:18:36;;;;;;;6.40;4.83;;;7.60;99.90;;;;;;5008967;28;20060;-68
2022/01/22 12:23:33;;;;;;;9.03;5.50;;;7.50;99.90;;;;;;5009101;28;20116;-68
2022/01/22 12:26:02;;;;;;;8.43;5.37;;;7.80;99.90;;;;;;5009191;28;20112;-68
2022/01/22 12:28:45;;;;;;;10.40;4.87;;;7.60;99.90;;;;;;5008950;28;20033;-67
2022/01/22 12:31:16;;;;;;;7.67;4.30;;;7.80;99.90;;;;;;5009106;28;20084;-68
2022/01/22 12:33:42;;;;;;;6.70;4.07;;;7.70;99.90;;;;;;5020868;28;20022;-67
2022/01/22 12:36:23;;;;;;;7.73;4.27;;;7.70;99.90;;;;;;5027440;28;20029;-68
2022/01/22 12:39:07;;;;;;;7.33;4.30;;;7.70;99.90;;;;;;5027892;28;20021;-67
2022/01/22 12:44:35;;;;;;;10.47;4.87;;;7.70;99.90;;;;;;5028163;28;20475;-67
2022/01/22 12:47:09;;;;;;;8.77;4.20;;;7.60;99.90;;;;;;5010616;28;20494;-67
2022/01/22 12:49:39;;;;;;;11.87;3.67;;;7.80;99.90;;;;;;5014425;28;20026;-68
2022/01/22 12:52:07;;;;;;;5.87;4.33;;;7.90;99.90;;;;;;5012757;28;20391;-68
2022/01/22 12:54:45;;;;;;;13.33;4.67;;;7.90;99.90;;;;;;5012885;28;20021;-68
2022/01/22 12:57:13;;;;;;;9.73;4.80;;;7.90;99.90;;;;;;5009031;28;20360;-68
2022/01/22 12:59:52;;;;;;;8.07;5.53;;;7.70;99.90;;;;;;5008498;28;20064;-68
2022/01/22 13:02:18;;;;;;;9.50;5.80;;;7.80;99.90;;;;;;5009114;28;20028;-68
2022/01/22 13:05:00;;;;;;;18.00;7.43;;;7.70;99.90;;;;;;5018121;28;20029;-67
2022/01/22 13:07:27;;;;;;;11.50;7.17;;;;;;;;;;5025433;28;20116;-67
2022/01/22 13:09:58;;;;;;;17.10;8.70;;;7.80;99.90;;;;;;5027618;28;20108;-68
2022/01/22 13:12:25;;;;;;;15.43;9.70;;;7.70;99.90;;;;;;5027040;28;20604;-68
2022/01/22 13:14:55;;;;;;;14.90;9.90;;;7.80;99.90;;;;;;5027484;28;20025;-68
2022/01/22 13:17:29;;;;;;;19.97;10.27;;;7.70;99.90;;;;;;5019483;28;20048;-68
2022/01/22 13:19:55;;;;;;;13.30;9.63;;;7.60;99.90;;;;;;5007980;28;20022;-68
2022/01/22 13:22:21;;;;;;;21.20;10.77;;;;;;;;;;5008903;28;20026;-68
2022/01/22 13:24:47;;;;;;;14.97;10.43;;;7.70;99.90;;;;;;5008213;28;20549;-68
2022/01/22 13:27:16;;;;;;;22.70;11.83;;;7.70;99.90;;;;;;5012567;28;20021;-68
2022/01/22 13:29:52;;;;;;;15.27;12.10;;;7.50;99.90;;;;;;5008069;28;20471;-67
2022/01/22 13:38:22;;;;;;;16.80;12.43;;;7.50;99.90;;;;;;5021346;28;20062;-68
2022/01/22 13:48:49;;;;;;;17.95;12.27;;;7.50;99.90;;;;;;5027095;28;20032;-69
2022/01/22 13:51:15;;;;;;;14.37;10.53;;;7.80;99.90;;;;;;5030894;28;20033;-68
2022/01/22 13:53:42;;;;;;;18.77;12.13;;;7.40;99.90;;;;;;5030639;28;20386;-68
2022/01/22 13:56:11;;;;;;;13.80;9.20;;;7.40;99.90;;;;;;5031177;28;20604;-68
2022/01/22 13:58:38;;;;;;;16.13;10.70;;;7.50;99.90;;;;;;5021021;28;20117;-67
2022/01/22 14:01:16;;;;;;;13.77;8.37;;;7.50;99.90;;;;;;5012038;28;20096;-68
2022/01/22 14:03:45;;;;;;;14.60;9.33;;;;;;;;;;5010933;28;20040;-68
2022/01/22 14:06:11;;;;;;;18.90;9.27;;;7.40;99.90;;;;;;5012030;28;20080;-68
2022/01/22 14:08:37;;;;;;;13.40;10.00;;;7.50;99.90;;;;;;5011531;28;20125;-68
2022/01/22 14:11:11;;;;;;;13.10;9.90;;;7.40;99.90;;;;;;5012824;28;20124;-67
2022/01/22 14:13:39;;;;;;;17.85;10.20;;;7.60;99.90;;;;;;5011381;28;20100;-67
2022/01/22 14:16:19;;;;;;;11.77;9.30;;;7.50;99.90;;;;;;5011330;28;20050;-68
2022/01/22 14:18:45;;;;;;;19.23;8.97;;;7.50;99.90;;;;;;5023885;28;20072;-68
2022/01/22 14:21:21;;;;;;;13.03;7.33;;;7.50;99.90;;;;;;5013662;28;20033;-68
2022/01/22 14:23:50;;;;;;;17.67;9.80;;;7.50;99.90;;;;;;5011047;28;20457;-67
2022/01/22 14:26:25;;;;;;;13.50;8.30;;;7.30;99.90;;;;;;5017472;28;20061;-68
2022/01/22 14:28:54;;;;;;;13.40;8.67;;;7.40;99.90;;;;;;5011359;28;20393;-67
2022/01/22 14:31:51;;;;;;;12.90;7.97;;;7.60;99.90;;;;;;5015807;28;20053;-68
2022/01/22 14:34:42;;;;;;;19.47;9.27;;;7.40;99.90;;;;;;4994044;28;20105;-68
2022/01/22 14:37:22;;;;;;;13.63;9.07;;;7.30;99.90;;;;;;5026656;28;20139;-67
2022/01/22 14:45:20;;;;;;;12.00;8.18;;;7.30;99.90;;;;;;5026561;28;20099;-67
2022/01/22 14:47:55;;;;;;;15.30;8.23;;;7.40;99.90;;;;;;5029229;28;20021;-68
2022/01/22 14:50:21;;;;;;;11.77;8.17;;;7.40;99.90;;;;;;5012858;28;20032;-68
2022/01/22 14:52:49;;;;;;;12.67;10.30;;;;;;;;;;5019069;28;20037;-68
2022/01/22 14:55:15;;;;;;;17.27;11.43;;;7.40;99.90;;;;;;5010053;28;20022;-68
2022/01/22 14:57:42;;;;;;;20.30;10.80;;;7.40;99.90;;;;;;5010464;28;20549;-68
2022/01/22 15:00:10;;;;;;;22.00;13.33;;;7.10;99.90;;;;;;5010452;28;20034;-68
2022/01/22 15:02:37;;;;;;;21.20;13.37;;;7.20;99.90;;;;;;5010388;28;20029;-68
2022/01/22 15:05:08;;;;;;;19.50;15.43;;;7.00;99.90;;;;;;5010955;28;20033;-68
2022/01/22 15:07:34;;;;;;;22.27;12.93;;;7.70;99.90;;;;;;5019555;28;20030;-68
2022/01/22 15:10:00;;;;;;;21.27;13.13;;;7.50;99.90;;;;;;5002267;28;20127;-68
2022/01/22 15:12:25;;;;;;;19.40;12.80;;;7.40;99.90;;;;;;5017117;28;20100;-68
2022/01/22 15:14:52;;;;;;;21.53;13.33;;;7.40;99.90;;;;;;5024506;28;20101;-68
2022/01/22 15:19:44;;;;;;;20.53;12.47;;;7.30;99.90;;;;;;5010087;28;20026;-68